sensor_id;sensor_type;location;lat;lon;timestamp;P1;durP1;ratioP1;P2;durP2;ratioP2
71202;SDS011;58929;47.490;19.090;2023-06-19T00:01:18;10.88;;;8.07;;
71202;SDS011;58929;47.490;19.090;2023-06-19T00:03:48;16.17;;;8.48;;
71202;SDS011;58929;47.490;19.090;2023-06-19T00:06:15;14.30;;;9.38;;
71202;SDS011;58929;47.490;19.090;2023-06-19T00:08:43;14.00;;;8.57;;
71202;SDS011;58929;47.490;19.090;2023-06-19T00:11:11;14.90;;;9.32;;
71202;SDS011;58929;47.490;19.090;2023-06-19T00:13:42;13.50;;;9.13;;
71202;SDS011;58929;47.490;19.090;2023-06-19T00:16:10;13.10;;;8.73;;
71202;SDS011;58929;47.490;19.090;2023-06-19T00:18:38;14.55;;;9.63;;
71202;SDS011;58929;47.490;19.090;2023-06-19T00:21:08;15.52;;;9.23;;
71202;SDS011;58929;47.490;19.090;2023-06-19T00:23:36;16.92;;;9.57;;
71202;SDS011;58929;47.490;19.090;2023-06-19T00:26:05;13.07;;;9.13;;
71202;SDS011;58929;47.490;19.090;2023-06-19T00:28:34;13.10;;;8.15;;
71202;SDS011;58929;47.490;19.090;2023-06-19T00:31:05;12.52;;;8.52;;
71202;SDS011;58929;47.490;19.090;2023-06-19T00:33:34;11.25;;;8.55;;
71202;SDS011;58929;47.490;19.090;2023-06-19T00:36:02;22.02;;;9.85;;
71202;SDS011;58929;47.490;19.090;2023-06-19T00:38:31;12.52;;;9.13;;
71202;SDS011;58929;47.490;19.090;2023-06-19T00:40:59;13.23;;;9.50;;
71202;SDS011;58929;47.490;19.090;2023-06-19T00:43:27;16.95;;;9.10;;
71202;SDS011;58929;47.490;19.090;2023-06-19T00:45:55;14.15;;;8.88;;
71202;SDS011;58929;47.490;19.090;2023-06-19T00:48:24;13.07;;;8.30;;
71202;SDS011;58929;47.490;19.090;2023-06-19T00:50:52;11.63;;;9.45;;
71202;SDS011;58929;47.490;19.090;2023-06-19T00:53:20;14.10;;;8.05;;
71202;SDS011;58929;47.490;19.090;2023-06-19T00:55:49;17.48;;;8.73;;
71202;SDS011;58929;47.490;19.090;2023-06-19T00:58:18;13.38;;;8.45;;
71202;SDS011;58929;47.490;19.090;2023-06-19T01:00:46;10.07;;;8.07;;
71202;SDS011;58929;47.490;19.090;2023-06-19T01:03:25;10.27;;;7.85;;
71202;SDS011;58929;47.490;19.090;2023-06-19T01:05:54;8.80;;;7.90;;
71202;SDS011;58929;47.490;19.090;2023-06-19T01:08:27;10.00;;;8.35;;
71202;SDS011;58929;47.490;19.090;2023-06-19T01:11:02;13.05;;;8.10;;
71202;SDS011;58929;47.490;19.090;2023-06-19T01:13:48;11.38;;;8.50;;
71202;SDS011;58929;47.490;19.090;2023-06-19T01:16:16;12.25;;;7.82;;
71202;SDS011;58929;47.490;19.090;2023-06-19T01:18:45;10.73;;;7.95;;
71202;SDS011;58929;47.490;19.090;2023-06-19T01:21:14;14.57;;;8.52;;
71202;SDS011;58929;47.490;19.090;2023-06-19T01:23:44;9.68;;;8.20;;
71202;SDS011;58929;47.490;19.090;2023-06-19T01:26:14;11.15;;;8.45;;
71202;SDS011;58929;47.490;19.090;2023-06-19T01:28:42;12.23;;;7.93;;
71202;SDS011;58929;47.490;19.090;2023-06-19T01:31:12;9.50;;;7.65;;
71202;SDS011;58929;47.490;19.090;2023-06-19T01:33:42;12.85;;;7.90;;
71202;SDS011;58929;47.490;19.090;2023-06-19T01:36:10;11.80;;;8.25;;
71202;SDS011;58929;47.490;19.090;2023-06-19T01:38:39;12.93;;;9.07;;
71202;SDS011;58929;47.490;19.090;2023-06-19T01:41:08;9.80;;;8.13;;
71202;SDS011;58929;47.490;19.090;2023-06-19T01:43:40;8.75;;;7.80;;
71202;SDS011;58929;47.490;19.090;2023-06-19T01:46:08;12.32;;;7.72;;
71202;SDS011;58929;47.490;19.090;2023-06-19T01:48:37;11.77;;;8.23;;
71202;SDS011;58929;47.490;19.090;2023-06-19T01:51:06;10.00;;;8.20;;
71202;SDS011;58929;47.490;19.090;2023-06-19T01:53:34;11.10;;;7.80;;
71202;SDS011;58929;47.490;19.090;2023-06-19T01:56:02;9.40;;;7.80;;
71202;SDS011;58929;47.490;19.090;2023-06-19T01:58:31;8.90;;;7.00;;
71202;SDS011;58929;47.490;19.090;2023-06-19T02:01:00;9.43;;;7.72;;
71202;SDS011;58929;47.490;19.090;2023-06-19T02:03:28;10.65;;;7.57;;
71202;SDS011;58929;47.490;19.090;2023-06-19T02:05:56;9.38;;;7.78;;
71202;SDS011;58929;47.490;19.090;2023-06-19T02:08:26;13.35;;;8.25;;
71202;SDS011;58929;47.490;19.090;2023-06-19T02:10:53;11.43;;;8.40;;
71202;SDS011;58929;47.490;19.090;2023-06-19T02:13:24;12.32;;;7.97;;
71202;SDS011;58929;47.490;19.090;2023-06-19T02:15:53;13.75;;;8.52;;
71202;SDS011;58929;47.490;19.090;2023-06-19T02:18:23;10.63;;;9.05;;
71202;SDS011;58929;47.490;19.090;2023-06-19T02:20:51;10.90;;;8.55;;
71202;SDS011;58929;47.490;19.090;2023-06-19T02:23:21;12.57;;;9.18;;
71202;SDS011;58929;47.490;19.090;2023-06-19T02:25:49;14.50;;;9.02;;
71202;SDS011;58929;47.490;19.090;2023-06-19T02:28:17;15.48;;;9.23;;
71202;SDS011;58929;47.490;19.090;2023-06-19T02:30:45;12.88;;;8.30;;
71202;SDS011;58929;47.490;19.090;2023-06-19T02:33:15;12.77;;;7.90;;
71202;SDS011;58929;47.490;19.090;2023-06-19T02:35:45;11.15;;;7.85;;
71202;SDS011;58929;47.490;19.090;2023-06-19T02:38:13;13.20;;;8.77;;
71202;SDS011;58929;47.490;19.090;2023-06-19T02:40:41;15.23;;;9.60;;
71202;SDS011;58929;47.490;19.090;2023-06-19T02:43:09;14.27;;;10.07;;
71202;SDS011;58929;47.490;19.090;2023-06-19T02:45:37;14.48;;;9.65;;
71202;SDS011;58929;47.490;19.090;2023-06-19T02:48:05;12.38;;;9.38;;
71202;SDS011;58929;47.490;19.090;2023-06-19T02:50:35;13.40;;;9.40;;
71202;SDS011;58929;47.490;19.090;2023-06-19T02:53:03;10.38;;;8.98;;
71202;SDS011;58929;47.490;19.090;2023-06-19T02:55:31;13.00;;;9.90;;
71202;SDS011;58929;47.490;19.090;2023-06-19T02:57:59;16.05;;;9.65;;
71202;SDS011;58929;47.490;19.090;2023-06-19T03:00:27;10.95;;;9.05;;
71202;SDS011;58929;47.490;19.090;2023-06-19T03:02:56;14.93;;;9.95;;
71202;SDS011;58929;47.490;19.090;2023-06-19T03:05:26;10.25;;;8.80;;
71202;SDS011;58929;47.490;19.090;2023-06-19T03:07:56;9.82;;;8.45;;
71202;SDS011;58929;47.490;19.090;2023-06-19T03:10:24;14.70;;;8.85;;
71202;SDS011;58929;47.490;19.090;2023-06-19T03:12:52;18.50;;;8.98;;
71202;SDS011;58929;47.490;19.090;2023-06-19T03:15:20;10.30;;;8.55;;
71202;SDS011;58929;47.490;19.090;2023-06-19T03:17:49;10.48;;;9.25;;
71202;SDS011;58929;47.490;19.090;2023-06-19T03:20:19;12.95;;;8.80;;
71202;SDS011;58929;47.490;19.090;2023-06-19T03:22:53;13.20;;;10.10;;
71202;SDS011;58929;47.490;19.090;2023-06-19T03:25:24;12.90;;;8.65;;
71202;SDS011;58929;47.490;19.090;2023-06-19T03:27:53;14.38;;;9.13;;
71202;SDS011;58929;47.490;19.090;2023-06-19T03:30:21;12.90;;;8.45;;
71202;SDS011;58929;47.490;19.090;2023-06-19T03:32:51;12.40;;;8.90;;
71202;SDS011;58929;47.490;19.090;2023-06-19T03:35:39;11.05;;;8.95;;
71202;SDS011;58929;47.490;19.090;2023-06-19T03:38:12;10.52;;;7.82;;
71202;SDS011;58929;47.490;19.090;2023-06-19T03:40:43;13.73;;;9.40;;
71202;SDS011;58929;47.490;19.090;2023-06-19T03:43:11;12.07;;;9.68;;
71202;SDS011;58929;47.490;19.090;2023-06-19T03:45:42;15.45;;;9.20;;
71202;SDS011;58929;47.490;19.090;2023-06-19T03:48:10;12.82;;;9.40;;
71202;SDS011;58929;47.490;19.090;2023-06-19T03:50:38;12.27;;;9.90;;
71202;SDS011;58929;47.490;19.090;2023-06-19T03:53:06;11.05;;;8.90;;
71202;SDS011;58929;47.490;19.090;2023-06-19T03:55:34;12.15;;;9.27;;
71202;SDS011;58929;47.490;19.090;2023-06-19T03:58:04;10.93;;;8.80;;
71202;SDS011;58929;47.490;19.090;2023-06-19T04:00:32;15.05;;;9.43;;
71202;SDS011;58929;47.490;19.090;2023-06-19T04:03:00;13.02;;;9.40;;
71202;SDS011;58929;47.490;19.090;2023-06-19T04:05:28;13.07;;;9.45;;
71202;SDS011;58929;47.490;19.090;2023-06-19T04:07:56;12.30;;;9.05;;
71202;SDS011;58929;47.490;19.090;2023-06-19T04:10:24;15.23;;;8.75;;
71202;SDS011;58929;47.490;19.090;2023-06-19T04:12:53;13.38;;;10.48;;
71202;SDS011;58929;47.490;19.090;2023-06-19T04:15:24;18.17;;;11.05;;
71202;SDS011;58929;47.490;19.090;2023-06-19T04:17:52;18.67;;;9.75;;
71202;SDS011;58929;47.490;19.090;2023-06-19T04:20:20;14.50;;;9.63;;
71202;SDS011;58929;47.490;19.090;2023-06-19T04:22:48;17.25;;;9.77;;
71202;SDS011;58929;47.490;19.090;2023-06-19T04:25:17;14.88;;;8.75;;
71202;SDS011;58929;47.490;19.090;2023-06-19T04:27:45;12.57;;;9.13;;
71202;SDS011;58929;47.490;19.090;2023-06-19T04:30:14;12.65;;;9.38;;
71202;SDS011;58929;47.490;19.090;2023-06-19T04:32:43;12.38;;;9.20;;
71202;SDS011;58929;47.490;19.090;2023-06-19T04:35:12;10.85;;;8.25;;
71202;SDS011;58929;47.490;19.090;2023-06-19T04:37:40;15.93;;;8.95;;
71202;SDS011;58929;47.490;19.090;2023-06-19T04:40:09;19.17;;;12.70;;
71202;SDS011;58929;47.490;19.090;2023-06-19T04:42:37;22.63;;;14.82;;
71202;SDS011;58929;47.490;19.090;2023-06-19T04:45:06;11.88;;;9.00;;
71202;SDS011;58929;47.490;19.090;2023-06-19T04:47:36;12.63;;;9.90;;
71202;SDS011;58929;47.490;19.090;2023-06-19T04:50:19;19.58;;;10.52;;
71202;SDS011;58929;47.490;19.090;2023-06-19T04:52:47;16.02;;;9.05;;
71202;SDS011;58929;47.490;19.090;2023-06-19T04:55:18;12.52;;;8.20;;
71202;SDS011;58929;47.490;19.090;2023-06-19T04:57:46;15.18;;;9.65;;
71202;SDS011;58929;47.490;19.090;2023-06-19T05:00:14;9.90;;;8.30;;
71202;SDS011;58929;47.490;19.090;2023-06-19T05:02:47;9.48;;;8.40;;
71202;SDS011;58929;47.490;19.090;2023-06-19T05:05:15;15.98;;;8.35;;
71202;SDS011;58929;47.490;19.090;2023-06-19T05:07:45;13.88;;;8.10;;
71202;SDS011;58929;47.490;19.090;2023-06-19T05:10:14;13.55;;;8.52;;
71202;SDS011;58929;47.490;19.090;2023-06-19T05:12:42;11.63;;;7.82;;
71202;SDS011;58929;47.490;19.090;2023-06-19T05:15:10;14.80;;;7.93;;
71202;SDS011;58929;47.490;19.090;2023-06-19T05:17:38;14.02;;;7.70;;
71202;SDS011;58929;47.490;19.090;2023-06-19T05:20:07;11.00;;;8.60;;
71202;SDS011;58929;47.490;19.090;2023-06-19T05:22:35;14.30;;;9.38;;
71202;SDS011;58929;47.490;19.090;2023-06-19T05:25:05;16.10;;;9.40;;
71202;SDS011;58929;47.490;19.090;2023-06-19T05:27:35;11.40;;;9.30;;
71202;SDS011;58929;47.490;19.090;2023-06-19T05:30:03;14.60;;;9.50;;
71202;SDS011;58929;47.490;19.090;2023-06-19T05:32:31;12.43;;;9.00;;
71202;SDS011;58929;47.490;19.090;2023-06-19T05:34:59;11.90;;;8.68;;
71202;SDS011;58929;47.490;19.090;2023-06-19T05:37:27;16.88;;;10.15;;
71202;SDS011;58929;47.490;19.090;2023-06-19T05:39:55;14.27;;;8.73;;
71202;SDS011;58929;47.490;19.090;2023-06-19T05:42:25;13.45;;;9.20;;
71202;SDS011;58929;47.490;19.090;2023-06-19T05:44:53;13.77;;;8.23;;
71202;SDS011;58929;47.490;19.090;2023-06-19T05:47:21;13.95;;;10.93;;
71202;SDS011;58929;47.490;19.090;2023-06-19T05:49:52;15.55;;;10.05;;
71202;SDS011;58929;47.490;19.090;2023-06-19T05:52:20;26.38;;;15.60;;
71202;SDS011;58929;47.490;19.090;2023-06-19T05:54:48;15.55;;;9.20;;
71202;SDS011;58929;47.490;19.090;2023-06-19T05:57:16;10.65;;;8.35;;
71202;SDS011;58929;47.490;19.090;2023-06-19T05:59:48;10.80;;;8.57;;
71202;SDS011;58929;47.490;19.090;2023-06-19T06:02:17;14.85;;;9.05;;
71202;SDS011;58929;47.490;19.090;2023-06-19T06:04:45;13.63;;;9.30;;
71202;SDS011;58929;47.490;19.090;2023-06-19T06:07:14;11.27;;;9.05;;
71202;SDS011;58929;47.490;19.090;2023-06-19T06:09:41;13.85;;;9.88;;
71202;SDS011;58929;47.490;19.090;2023-06-19T06:12:09;13.40;;;9.15;;
71202;SDS011;58929;47.490;19.090;2023-06-19T06:14:39;14.63;;;8.57;;
71202;SDS011;58929;47.490;19.090;2023-06-19T06:17:09;10.88;;;8.98;;
71202;SDS011;58929;47.490;19.090;2023-06-19T06:19:37;10.70;;;8.10;;
71202;SDS011;58929;47.490;19.090;2023-06-19T06:22:05;16.27;;;9.23;;
71202;SDS011;58929;47.490;19.090;2023-06-19T06:24:34;10.63;;;8.95;;
71202;SDS011;58929;47.490;19.090;2023-06-19T06:27:02;18.05;;;9.43;;
71202;SDS011;58929;47.490;19.090;2023-06-19T06:29:31;12.38;;;8.50;;
71202;SDS011;58929;47.490;19.090;2023-06-19T06:32:02;14.85;;;9.25;;
71202;SDS011;58929;47.490;19.090;2023-06-19T06:34:32;14.30;;;9.35;;
71202;SDS011;58929;47.490;19.090;2023-06-19T06:37:07;18.33;;;9.25;;
71202;SDS011;58929;47.490;19.090;2023-06-19T06:39:35;18.70;;;10.02;;
71202;SDS011;58929;47.490;19.090;2023-06-19T06:42:06;12.43;;;9.23;;
71202;SDS011;58929;47.490;19.090;2023-06-19T06:44:35;11.60;;;9.10;;
71202;SDS011;58929;47.490;19.090;2023-06-19T06:47:05;9.13;;;7.63;;
71202;SDS011;58929;47.490;19.090;2023-06-19T06:49:42;10.20;;;8.25;;
71202;SDS011;58929;47.490;19.090;2023-06-19T06:52:10;10.95;;;7.90;;
71202;SDS011;58929;47.490;19.090;2023-06-19T06:54:38;14.63;;;9.25;;
71202;SDS011;58929;47.490;19.090;2023-06-19T06:57:06;16.27;;;9.27;;
71202;SDS011;58929;47.490;19.090;2023-06-19T06:59:34;12.77;;;8.52;;
71202;SDS011;58929;47.490;19.090;2023-06-19T07:02:04;12.90;;;8.38;;
71202;SDS011;58929;47.490;19.090;2023-06-19T07:04:32;9.43;;;8.27;;
71202;SDS011;58929;47.490;19.090;2023-06-19T07:07:04;10.23;;;8.27;;
71202;SDS011;58929;47.490;19.090;2023-06-19T07:09:33;16.13;;;9.48;;
71202;SDS011;58929;47.490;19.090;2023-06-19T07:12:01;16.35;;;9.10;;
71202;SDS011;58929;47.490;19.090;2023-06-19T07:14:30;31.20;;;20.17;;
71202;SDS011;58929;47.490;19.090;2023-06-19T07:16:58;17.20;;;12.48;;
71202;SDS011;58929;47.490;19.090;2023-06-19T07:19:26;8.80;;;7.90;;
71202;SDS011;58929;47.490;19.090;2023-06-19T07:21:56;11.43;;;8.23;;
71202;SDS011;58929;47.490;19.090;2023-06-19T07:24:25;10.57;;;8.32;;
71202;SDS011;58929;47.490;19.090;2023-06-19T07:26:53;10.82;;;8.35;;
71202;SDS011;58929;47.490;19.090;2023-06-19T07:29:23;12.90;;;7.45;;
71202;SDS011;58929;47.490;19.090;2023-06-19T07:31:52;10.38;;;7.28;;
71202;SDS011;58929;47.490;19.090;2023-06-19T07:34:25;11.38;;;8.10;;
71202;SDS011;58929;47.490;19.090;2023-06-19T07:36:53;10.18;;;7.28;;
71202;SDS011;58929;47.490;19.090;2023-06-19T07:39:21;11.13;;;7.15;;
71202;SDS011;58929;47.490;19.090;2023-06-19T07:41:50;10.55;;;6.75;;
71202;SDS011;58929;47.490;19.090;2023-06-19T07:44:18;9.68;;;6.85;;
71202;SDS011;58929;47.490;19.090;2023-06-19T07:46:47;8.90;;;6.28;;
71202;SDS011;58929;47.490;19.090;2023-06-19T07:49:15;8.63;;;6.82;;
71202;SDS011;58929;47.490;19.090;2023-06-19T07:51:43;8.20;;;6.90;;
71202;SDS011;58929;47.490;19.090;2023-06-19T07:54:11;8.57;;;6.97;;
71202;SDS011;58929;47.490;19.090;2023-06-19T07:56:39;7.20;;;6.50;;
71202;SDS011;58929;47.490;19.090;2023-06-19T07:59:09;13.25;;;6.82;;
71202;SDS011;58929;47.490;19.090;2023-06-19T08:01:37;10.10;;;7.15;;
71202;SDS011;58929;47.490;19.090;2023-06-19T08:04:05;9.95;;;6.93;;
71202;SDS011;58929;47.490;19.090;2023-06-19T08:06:33;7.70;;;6.10;;
71202;SDS011;58929;47.490;19.090;2023-06-19T08:09:02;8.93;;;6.45;;
71202;SDS011;58929;47.490;19.090;2023-06-19T08:11:30;7.63;;;6.85;;
71202;SDS011;58929;47.490;19.090;2023-06-19T08:14:02;9.77;;;7.15;;
71202;SDS011;58929;47.490;19.090;2023-06-19T08:16:31;8.70;;;6.70;;
71202;SDS011;58929;47.490;19.090;2023-06-19T08:18:59;12.93;;;10.70;;
71202;SDS011;58929;47.490;19.090;2023-06-19T08:21:30;10.52;;;6.47;;
71202;SDS011;58929;47.490;19.090;2023-06-19T08:23:58;11.98;;;7.10;;
71202;SDS011;58929;47.490;19.090;2023-06-19T08:26:26;10.02;;;6.65;;
71202;SDS011;58929;47.490;19.090;2023-06-19T08:28:54;7.93;;;5.90;;
71202;SDS011;58929;47.490;19.090;2023-06-19T08:31:22;10.45;;;6.65;;
71202;SDS011;58929;47.490;19.090;2023-06-19T08:33:55;6.80;;;5.80;;
71202;SDS011;58929;47.490;19.090;2023-06-19T08:36:25;6.65;;;5.95;;
71202;SDS011;58929;47.490;19.090;2023-06-19T08:38:52;9.43;;;6.45;;
71202;SDS011;58929;47.490;19.090;2023-06-19T08:41:22;9.32;;;6.40;;
71202;SDS011;58929;47.490;19.090;2023-06-19T08:43:51;9.52;;;5.55;;
71202;SDS011;58929;47.490;19.090;2023-06-19T08:46:19;14.23;;;5.75;;
71202;SDS011;58929;47.490;19.090;2023-06-19T08:48:50;10.48;;;5.45;;
71202;SDS011;58929;47.490;19.090;2023-06-19T08:51:19;8.10;;;6.30;;
71202;SDS011;58929;47.490;19.090;2023-06-19T08:53:48;8.30;;;5.95;;
71202;SDS011;58929;47.490;19.090;2023-06-19T08:56:17;13.95;;;6.22;;
71202;SDS011;58929;47.490;19.090;2023-06-19T08:58:45;8.95;;;6.00;;
71202;SDS011;58929;47.490;19.090;2023-06-19T09:01:16;7.45;;;6.20;;
71202;SDS011;58929;47.490;19.090;2023-06-19T09:03:45;7.28;;;5.40;;
71202;SDS011;58929;47.490;19.090;2023-06-19T09:06:14;8.20;;;6.03;;
71202;SDS011;58929;47.490;19.090;2023-06-19T09:08:44;10.80;;;6.00;;
71202;SDS011;58929;47.490;19.090;2023-06-19T09:11:12;9.63;;;6.18;;
71202;SDS011;58929;47.490;19.090;2023-06-19T09:13:40;10.93;;;7.07;;
71202;SDS011;58929;47.490;19.090;2023-06-19T09:16:12;8.52;;;6.35;;
71202;SDS011;58929;47.490;19.090;2023-06-19T09:18:44;11.88;;;5.70;;
71202;SDS011;58929;47.490;19.090;2023-06-19T09:21:15;14.05;;;6.70;;
71202;SDS011;58929;47.490;19.090;2023-06-19T09:23:46;5.93;;;5.32;;
71202;SDS011;58929;47.490;19.090;2023-06-19T09:26:17;9.13;;;5.43;;
71202;SDS011;58929;47.490;19.090;2023-06-19T09:28:46;8.90;;;6.80;;
71202;SDS011;58929;47.490;19.090;2023-06-19T09:31:17;9.18;;;6.03;;
71202;SDS011;58929;47.490;19.090;2023-06-19T09:33:45;6.97;;;5.57;;
71202;SDS011;58929;47.490;19.090;2023-06-19T09:36:13;8.05;;;5.80;;
71202;SDS011;58929;47.490;19.090;2023-06-19T09:38:42;7.68;;;6.35;;
71202;SDS011;58929;47.490;19.090;2023-06-19T09:41:15;10.02;;;6.13;;
71202;SDS011;58929;47.490;19.090;2023-06-19T09:43:44;9.55;;;5.97;;
71202;SDS011;58929;47.490;19.090;2023-06-19T09:46:17;10.95;;;5.45;;
71202;SDS011;58929;47.490;19.090;2023-06-19T09:48:46;8.15;;;5.82;;
71202;SDS011;58929;47.490;19.090;2023-06-19T09:51:17;12.50;;;7.68;;
71202;SDS011;58929;47.490;19.090;2023-06-19T09:53:47;9.90;;;6.53;;
71202;SDS011;58929;47.490;19.090;2023-06-19T09:56:24;8.77;;;6.20;;
71202;SDS011;58929;47.490;19.090;2023-06-19T09:58:55;7.80;;;5.20;;
71202;SDS011;58929;47.490;19.090;2023-06-19T10:01:24;14.98;;;5.53;;
71202;SDS011;58929;47.490;19.090;2023-06-19T10:04:03;7.88;;;5.50;;
71202;SDS011;58929;47.490;19.090;2023-06-19T10:06:42;8.02;;;6.82;;
71202;SDS011;58929;47.490;19.090;2023-06-19T10:09:10;11.57;;;6.72;;
71202;SDS011;58929;47.490;19.090;2023-06-19T10:11:47;16.50;;;6.53;;
71202;SDS011;58929;47.490;19.090;2023-06-19T10:14:17;12.63;;;6.22;;
71202;SDS011;58929;47.490;19.090;2023-06-19T10:16:45;9.38;;;5.55;;
71202;SDS011;58929;47.490;19.090;2023-06-19T10:19:14;7.38;;;6.10;;
71202;SDS011;58929;47.490;19.090;2023-06-19T10:21:44;7.63;;;5.32;;
71202;SDS011;58929;47.490;19.090;2023-06-19T10:24:14;9.80;;;5.85;;
71202;SDS011;58929;47.490;19.090;2023-06-19T10:26:58;7.05;;;6.15;;
71202;SDS011;58929;47.490;19.090;2023-06-19T10:29:26;10.63;;;6.03;;
71202;SDS011;58929;47.490;19.090;2023-06-19T10:32:06;13.93;;;6.72;;
71202;SDS011;58929;47.490;19.090;2023-06-19T10:34:34;8.75;;;7.80;;
71202;SDS011;58929;47.490;19.090;2023-06-19T10:37:03;9.50;;;6.07;;
71202;SDS011;58929;47.490;19.090;2023-06-19T10:39:31;8.10;;;5.68;;
71202;SDS011;58929;47.490;19.090;2023-06-19T10:42:06;7.57;;;5.90;;
71202;SDS011;58929;47.490;19.090;2023-06-19T10:44:35;12.18;;;6.03;;
71202;SDS011;58929;47.490;19.090;2023-06-19T10:47:03;12.02;;;6.45;;
71202;SDS011;58929;47.490;19.090;2023-06-19T10:49:34;9.95;;;7.35;;
71202;SDS011;58929;47.490;19.090;2023-06-19T10:52:02;8.50;;;6.60;;
71202;SDS011;58929;47.490;19.090;2023-06-19T10:54:31;10.63;;;6.90;;
71202;SDS011;58929;47.490;19.090;2023-06-19T10:57:03;9.32;;;6.60;;
71202;SDS011;58929;47.490;19.090;2023-06-19T10:59:33;9.70;;;7.47;;
71202;SDS011;58929;47.490;19.090;2023-06-19T11:02:01;10.55;;;6.35;;
71202;SDS011;58929;47.490;19.090;2023-06-19T11:04:29;6.95;;;5.97;;
71202;SDS011;58929;47.490;19.090;2023-06-19T11:06:57;8.65;;;5.55;;
71202;SDS011;58929;47.490;19.090;2023-06-19T11:09:32;13.60;;;5.85;;
71202;SDS011;58929;47.490;19.090;2023-06-19T11:12:00;9.15;;;5.65;;
71202;SDS011;58929;47.490;19.090;2023-06-19T11:14:29;8.73;;;5.75;;
71202;SDS011;58929;47.490;19.090;2023-06-19T11:16:58;7.72;;;6.05;;
71202;SDS011;58929;47.490;19.090;2023-06-19T11:19:30;5.85;;;5.18;;
71202;SDS011;58929;47.490;19.090;2023-06-19T11:21:59;10.05;;;5.45;;
71202;SDS011;58929;47.490;19.090;2023-06-19T11:24:29;6.10;;;5.43;;
71202;SDS011;58929;47.490;19.090;2023-06-19T11:26:57;8.93;;;5.95;;
71202;SDS011;58929;47.490;19.090;2023-06-19T11:29:26;6.38;;;5.60;;
71202;SDS011;58929;47.490;19.090;2023-06-19T11:32:05;8.02;;;5.90;;
71202;SDS011;58929;47.490;19.090;2023-06-19T11:34:37;8.85;;;6.00;;
71202;SDS011;58929;47.490;19.090;2023-06-19T11:37:11;7.32;;;5.65;;
71202;SDS011;58929;47.490;19.090;2023-06-19T11:39:40;14.35;;;6.20;;
71202;SDS011;58929;47.490;19.090;2023-06-19T11:42:09;10.93;;;5.80;;
71202;SDS011;58929;47.490;19.090;2023-06-19T11:44:52;13.40;;;5.78;;
71202;SDS011;58929;47.490;19.090;2023-06-19T11:47:21;6.85;;;5.50;;
71202;SDS011;58929;47.490;19.090;2023-06-19T11:49:50;7.55;;;5.55;;
71202;SDS011;58929;47.490;19.090;2023-06-19T11:52:18;7.28;;;6.40;;
71202;SDS011;58929;47.490;19.090;2023-06-19T11:54:46;15.60;;;5.47;;
71202;SDS011;58929;47.490;19.090;2023-06-19T11:57:15;10.13;;;5.75;;
71202;SDS011;58929;47.490;19.090;2023-06-19T11:59:43;8.63;;;5.90;;
71202;SDS011;58929;47.490;19.090;2023-06-19T12:02:11;7.00;;;5.43;;
71202;SDS011;58929;47.490;19.090;2023-06-19T12:04:40;8.52;;;5.40;;
71202;SDS011;58929;47.490;19.090;2023-06-19T12:07:08;10.77;;;6.40;;
71202;SDS011;58929;47.490;19.090;2023-06-19T12:09:38;8.43;;;6.07;;
71202;SDS011;58929;47.490;19.090;2023-06-19T12:12:07;10.32;;;6.38;;
71202;SDS011;58929;47.490;19.090;2023-06-19T12:14:35;12.23;;;6.47;;
71202;SDS011;58929;47.490;19.090;2023-06-19T12:17:03;8.40;;;6.18;;
71202;SDS011;58929;47.490;19.090;2023-06-19T12:19:31;8.05;;;5.57;;
71202;SDS011;58929;47.490;19.090;2023-06-19T12:22:01;9.18;;;5.85;;
71202;SDS011;58929;47.490;19.090;2023-06-19T12:24:29;9.75;;;6.05;;
71202;SDS011;58929;47.490;19.090;2023-06-19T12:26:57;7.13;;;5.85;;
71202;SDS011;58929;47.490;19.090;2023-06-19T12:29:25;7.32;;;5.40;;
71202;SDS011;58929;47.490;19.090;2023-06-19T12:31:58;8.95;;;6.07;;
71202;SDS011;58929;47.490;19.090;2023-06-19T12:34:26;6.78;;;5.60;;
71202;SDS011;58929;47.490;19.090;2023-06-19T12:36:57;10.32;;;6.50;;
71202;SDS011;58929;47.490;19.090;2023-06-19T12:39:26;10.43;;;6.03;;
71202;SDS011;58929;47.490;19.090;2023-06-19T12:41:55;10.60;;;5.95;;
71202;SDS011;58929;47.490;19.090;2023-06-19T12:44:23;8.27;;;5.85;;
71202;SDS011;58929;47.490;19.090;2023-06-19T12:46:51;12.70;;;6.32;;
71202;SDS011;58929;47.490;19.090;2023-06-19T12:49:19;7.25;;;6.07;;
71202;SDS011;58929;47.490;19.090;2023-06-19T12:51:47;9.05;;;6.15;;
71202;SDS011;58929;47.490;19.090;2023-06-19T12:54:18;11.20;;;5.63;;
71202;SDS011;58929;47.490;19.090;2023-06-19T12:56:47;6.85;;;5.45;;
71202;SDS011;58929;47.490;19.090;2023-06-19T12:59:15;12.32;;;5.68;;
71202;SDS011;58929;47.490;19.090;2023-06-19T13:01:43;7.32;;;5.18;;
71202;SDS011;58929;47.490;19.090;2023-06-19T13:04:12;7.40;;;5.68;;
71202;SDS011;58929;47.490;19.090;2023-06-19T13:06:40;7.00;;;5.90;;
71202;SDS011;58929;47.490;19.090;2023-06-19T13:09:08;6.57;;;5.88;;
71202;SDS011;58929;47.490;19.090;2023-06-19T13:11:36;8.52;;;5.85;;
71202;SDS011;58929;47.490;19.090;2023-06-19T13:14:06;6.55;;;5.80;;
71202;SDS011;58929;47.490;19.090;2023-06-19T13:16:34;8.90;;;5.60;;
71202;SDS011;58929;47.490;19.090;2023-06-19T13:19:04;8.52;;;5.32;;
71202;SDS011;58929;47.490;19.090;2023-06-19T13:21:32;8.55;;;5.30;;
71202;SDS011;58929;47.490;19.090;2023-06-19T13:24:02;12.20;;;5.72;;
71202;SDS011;58929;47.490;19.090;2023-06-19T13:26:30;6.22;;;5.22;;
71202;SDS011;58929;47.490;19.090;2023-06-19T13:28:58;9.20;;;5.93;;
71202;SDS011;58929;47.490;19.090;2023-06-19T13:31:28;10.20;;;6.03;;
71202;SDS011;58929;47.490;19.090;2023-06-19T13:33:56;11.88;;;6.03;;
71202;SDS011;58929;47.490;19.090;2023-06-19T13:36:25;10.75;;;5.78;;
71202;SDS011;58929;47.490;19.090;2023-06-19T13:38:53;6.22;;;5.63;;
71202;SDS011;58929;47.490;19.090;2023-06-19T13:41:21;12.85;;;5.63;;
71202;SDS011;58929;47.490;19.090;2023-06-19T13:43:50;7.88;;;5.53;;
71202;SDS011;58929;47.490;19.090;2023-06-19T13:46:20;8.68;;;5.50;;
71202;SDS011;58929;47.490;19.090;2023-06-19T13:48:50;12.75;;;6.03;;
71202;SDS011;58929;47.490;19.090;2023-06-19T13:51:18;6.05;;;5.18;;
71202;SDS011;58929;47.490;19.090;2023-06-19T13:53:46;7.00;;;5.35;;
71202;SDS011;58929;47.490;19.090;2023-06-19T13:56:15;10.00;;;5.70;;
71202;SDS011;58929;47.490;19.090;2023-06-19T13:58:43;6.40;;;5.80;;
71202;SDS011;58929;47.490;19.090;2023-06-19T14:01:11;7.63;;;5.78;;
71202;SDS011;58929;47.490;19.090;2023-06-19T14:03:40;8.82;;;6.18;;
71202;SDS011;58929;47.490;19.090;2023-06-19T14:06:09;8.50;;;5.78;;
71202;SDS011;58929;47.490;19.090;2023-06-19T14:08:39;8.27;;;5.80;;
71202;SDS011;58929;47.490;19.090;2023-06-19T14:11:07;7.43;;;6.72;;
71202;SDS011;58929;47.490;19.090;2023-06-19T14:13:35;8.80;;;6.18;;
71202;SDS011;58929;47.490;19.090;2023-06-19T14:16:03;8.82;;;6.07;;
71202;SDS011;58929;47.490;19.090;2023-06-19T14:18:31;6.07;;;5.43;;
71202;SDS011;58929;47.490;19.090;2023-06-19T14:21:00;7.53;;;6.38;;
71202;SDS011;58929;47.490;19.090;2023-06-19T14:23:29;8.55;;;6.32;;
71202;SDS011;58929;47.490;19.090;2023-06-19T14:25:57;7.70;;;6.10;;
71202;SDS011;58929;47.490;19.090;2023-06-19T14:28:25;7.32;;;6.05;;
71202;SDS011;58929;47.490;19.090;2023-06-19T14:30:54;12.70;;;6.93;;
71202;SDS011;58929;47.490;19.090;2023-06-19T14:33:22;8.35;;;6.22;;
71202;SDS011;58929;47.490;19.090;2023-06-19T14:35:50;8.80;;;6.72;;
71202;SDS011;58929;47.490;19.090;2023-06-19T14:38:18;7.63;;;6.72;;